RJA261 OKKK-OJAI
Flight info
| Callsign | RJA261 |
|---|---|
| Flight time | 1h 44m |
| Altitude | 40000 |
| Route | NIDAP L550 VATIM L768 AAR V45 TRF R652 OBROD Q163 GENEX L53 ELOXI |
| Aircraft | B788/H-SDE1E2E3FGHIJ2J3J4J5M1RWXY/LB1D1 |
Departure
| Time | 2026-05-07 20:31 |
|---|---|
| Airport | Kuwait International Airport (OKKK) |
Arrival
| Time | 2026-05-07 22:15 |
|---|---|
| Airport | Queen Alia International Airport (OJAI) |
| Time | Latitude | Longitude | Altitude | Speed | Heading |
|---|---|---|---|---|---|
| 2026-05-07 20:03 | 29.23871 | 47.97053 | 160 ft | 0 kts | 13° |
| 2026-05-07 20:17 | 29.23868 | 47.97052 | 160 ft | 2 kts | 13° |
| 2026-05-07 20:17 | 29.23849 | 47.97047 | 181 ft | 3 kts | 13° |
| 2026-05-07 20:18 | 29.23831 | 47.97042 | 155 ft | 2 kts | 13° |
| 2026-05-07 20:18 | 29.23814 | 47.97040 | 159 ft | 3 kts | 343° |
| 2026-05-07 20:18 | 29.23798 | 47.97050 | 160 ft | 4 kts | 306° |
| 2026-05-07 20:18 | 29.23788 | 47.97069 | 160 ft | 3 kts | 295° |
| 2026-05-07 20:19 | 29.23786 | 47.97075 | 160 ft | 11 kts | 294° |
| 2026-05-07 20:24 | 29.23790 | 47.97065 | 160 ft | 4 kts | 294° |
| 2026-05-07 20:24 | 29.23800 | 47.97014 | 159 ft | 12 kts | 267° |
| 2026-05-07 20:24 | 29.23771 | 47.96912 | 158 ft | 14 kts | 246° |
| 2026-05-07 20:25 | 29.23727 | 47.96803 | 157 ft | 16 kts | 245° |
| 2026-05-07 20:25 | 29.23680 | 47.96687 | 157 ft | 16 kts | 245° |
| 2026-05-07 20:25 | 29.23617 | 47.96640 | 159 ft | 10 kts | 172° |
| 2026-05-07 20:25 | 29.23496 | 47.96694 | 161 ft | 20 kts | 154° |
| 2026-05-07 20:26 | 29.23370 | 47.96761 | 163 ft | 20 kts | 155° |
| 2026-05-07 20:26 | 29.23246 | 47.96827 | 164 ft | 20 kts | 155° |
| 2026-05-07 20:26 | 29.23123 | 47.96891 | 166 ft | 19 kts | 156° |
| 2026-05-07 20:26 | 29.23002 | 47.96952 | 167 ft | 19 kts | 154° |
| 2026-05-07 20:27 | 29.22884 | 47.97019 | 168 ft | 19 kts | 154° |
| 2026-05-07 20:27 | 29.22722 | 47.97104 | 170 ft | 36 kts | 155° |
| 2026-05-07 20:27 | 29.22445 | 47.97252 | 174 ft | 45 kts | 155° |
| 2026-05-07 20:27 | 29.22172 | 47.97398 | 177 ft | 42 kts | 155° |
| 2026-05-07 20:28 | 29.21918 | 47.97532 | 179 ft | 38 kts | 155° |
| 2026-05-07 20:28 | 29.21689 | 47.97655 | 181 ft | 36 kts | 155° |
| 2026-05-07 20:28 | 29.21468 | 47.97771 | 187 ft | 33 kts | 155° |
| 2026-05-07 20:28 | 29.21303 | 47.97849 | 195 ft | 13 kts | 184° |
| 2026-05-07 20:29 | 29.21274 | 47.97834 | 196 ft | 0 kts | 221° |
| 2026-05-07 20:29 | 29.21274 | 47.97833 | 196 ft | 1 kts | 222° |
| 2026-05-07 20:29 | 29.21250 | 47.97756 | 189 ft | 18 kts | 281° |
| 2026-05-07 20:30 | 29.21323 | 47.97620 | 202 ft | 20 kts | 316° |
| 2026-05-07 20:30 | 29.21562 | 47.97484 | 201 ft | 78 kts | 335° |
| 2026-05-07 20:30 | 29.22321 | 47.97076 | 195 ft | 161 kts | 334° |
| 2026-05-07 20:30 | 29.23444 | 47.96407 | 642 ft | 195 kts | 329° |
| 2026-05-07 20:31 | 29.24593 | 47.95613 | 1735 ft | 198 kts | 329° |
| 2026-05-07 20:31 | 29.25904 | 47.94863 | 2372 ft | 219 kts | 331° |
| 2026-05-07 20:31 | 29.26851 | 47.93518 | 3319 ft | 226 kts | 288° |
| 2026-05-07 20:31 | 29.26904 | 47.91653 | 3884 ft | 250 kts | 255° |
| 2026-05-07 20:32 | 29.26014 | 47.89906 | 3982 ft | 262 kts | 222° |
| 2026-05-07 20:32 | 29.24416 | 47.88922 | 3970 ft | 263 kts | 204° |
| 2026-05-07 20:32 | 29.22681 | 47.88224 | 3975 ft | 265 kts | 202° |
| 2026-05-07 20:32 | 29.20976 | 47.87494 | 3975 ft | 263 kts | 205° |
| 2026-05-07 20:33 | 29.19283 | 47.86686 | 4322 ft | 264 kts | 205° |
| 2026-05-07 20:33 | 29.17658 | 47.85918 | 5895 ft | 250 kts | 206° |
| 2026-05-07 20:33 | 29.16019 | 47.85154 | 7082 ft | 256 kts | 206° |
| 2026-05-07 20:33 | 29.14353 | 47.84383 | 8182 ft | 261 kts | 206° |
| 2026-05-07 20:34 | 29.12647 | 47.83592 | 9271 ft | 267 kts | 206° |
| 2026-05-07 20:34 | 29.10908 | 47.82785 | 10298 ft | 275 kts | 205° |
| 2026-05-07 20:34 | 29.09037 | 47.81912 | 10767 ft | 303 kts | 205° |
| 2026-05-07 20:34 | 29.06991 | 47.80962 | 11149 ft | 332 kts | 205° |
| 2026-05-07 20:35 | 29.04789 | 47.79946 | 11821 ft | 345 kts | 204° |
| 2026-05-07 20:35 | 29.02536 | 47.78908 | 12820 ft | 352 kts | 204° |
| 2026-05-07 20:35 | 29.00243 | 47.77845 | 13768 ft | 359 kts | 204° |
| 2026-05-07 20:35 | 28.97906 | 47.76763 | 14669 ft | 364 kts | 204° |
| 2026-05-07 20:36 | 28.95553 | 47.75675 | 15635 ft | 367 kts | 205° |
| 2026-05-07 20:36 | 28.93174 | 47.74576 | 16560 ft | 371 kts | 205° |
| 2026-05-07 20:36 | 28.90769 | 47.73465 | 17484 ft | 374 kts | 206° |
| 2026-05-07 20:36 | 28.88347 | 47.72345 | 18381 ft | 377 kts | 206° |
| 2026-05-07 20:37 | 28.85904 | 47.71218 | 19177 ft | 380 kts | 205° |
| 2026-05-07 20:37 | 28.83444 | 47.70084 | 19978 ft | 382 kts | 205° |
| 2026-05-07 20:37 | 28.80971 | 47.68944 | 20757 ft | 385 kts | 205° |
| 2026-05-07 20:37 | 28.78506 | 47.67808 | 21497 ft | 388 kts | 204° |
| 2026-05-07 20:38 | 28.75998 | 47.66653 | 22235 ft | 390 kts | 204° |
| 2026-05-07 20:38 | 28.73531 | 47.65353 | 22954 ft | 391 kts | 212° |
| 2026-05-07 20:38 | 28.71299 | 47.63567 | 23594 ft | 394 kts | 221° |
| 2026-05-07 20:38 | 28.69371 | 47.61339 | 24170 ft | 397 kts | 230° |
| 2026-05-07 20:39 | 28.67817 | 47.58731 | 24746 ft | 401 kts | 240° |
| 2026-05-07 20:39 | 28.66697 | 47.55813 | 25311 ft | 406 kts | 250° |
| 2026-05-07 20:39 | 28.66060 | 47.52655 | 25854 ft | 413 kts | 259° |
| 2026-05-07 20:39 | 28.65956 | 47.49364 | 26377 ft | 421 kts | 269° |
| 2026-05-07 20:40 | 28.66213 | 47.46013 | 26854 ft | 426 kts | 270° |
| 2026-05-07 20:40 | 28.66487 | 47.42648 | 27364 ft | 428 kts | 270° |
| 2026-05-07 20:40 | 28.66772 | 47.39262 | 27851 ft | 431 kts | 270° |
| 2026-05-07 20:40 | 28.67057 | 47.35854 | 28322 ft | 434 kts | 270° |
| 2026-05-07 20:41 | 28.67335 | 47.32424 | 28791 ft | 436 kts | 270° |
| 2026-05-07 20:41 | 28.67612 | 47.29010 | 29243 ft | 439 kts | 270° |
| 2026-05-07 20:41 | 28.67896 | 47.25538 | 29673 ft | 442 kts | 269° |
| 2026-05-07 20:41 | 28.68182 | 47.22043 | 30088 ft | 444 kts | 269° |
| 2026-05-07 20:42 | 28.68466 | 47.18539 | 30513 ft | 444 kts | 269° |
| 2026-05-07 20:42 | 28.68749 | 47.15040 | 30982 ft | 444 kts | 269° |
| 2026-05-07 20:42 | 28.69030 | 47.11542 | 31399 ft | 443 kts | 269° |
| 2026-05-07 20:42 | 28.69311 | 47.08046 | 31801 ft | 443 kts | 269° |
| 2026-05-07 20:43 | 28.69590 | 47.04550 | 32206 ft | 443 kts | 269° |
| 2026-05-07 20:43 | 28.69869 | 47.01054 | 32589 ft | 443 kts | 269° |
| 2026-05-07 20:43 | 28.70147 | 46.97554 | 32942 ft | 444 kts | 268° |
| 2026-05-07 20:43 | 28.70424 | 46.94053 | 33295 ft | 444 kts | 268° |
| 2026-05-07 20:44 | 28.70701 | 46.90556 | 33818 ft | 440 kts | 268° |
| 2026-05-07 20:44 | 28.70974 | 46.87111 | 34325 ft | 435 kts | 268° |
| 2026-05-07 20:44 | 28.71245 | 46.83687 | 34752 ft | 432 kts | 268° |
| 2026-05-07 20:44 | 28.71514 | 46.80332 | 35164 ft | 429 kts | 268° |
| 2026-05-07 20:45 | 28.71785 | 46.76959 | 35583 ft | 426 kts | 268° |
| 2026-05-07 20:45 | 28.72050 | 46.73612 | 35996 ft | 423 kts | 267° |
| 2026-05-07 20:45 | 28.72313 | 46.70284 | 36408 ft | 420 kts | 267° |
| 2026-05-07 20:45 | 28.72573 | 46.66978 | 36814 ft | 417 kts | 267° |
| 2026-05-07 20:46 | 28.72832 | 46.63695 | 37220 ft | 414 kts | 266° |
| 2026-05-07 20:46 | 28.73088 | 46.60429 | 37632 ft | 411 kts | 266° |
| 2026-05-07 20:46 | 28.73341 | 46.57195 | 38034 ft | 409 kts | 266° |
| 2026-05-07 20:46 | 28.73591 | 46.53982 | 38432 ft | 406 kts | 266° |
| 2026-05-07 20:47 | 28.73840 | 46.50783 | 38787 ft | 403 kts | 266° |
| 2026-05-07 20:47 | 28.74085 | 46.47596 | 38984 ft | 404 kts | 266° |
| 2026-05-07 20:47 | 28.74330 | 46.44400 | 39167 ft | 405 kts | 266° |
| 2026-05-07 20:47 | 28.74574 | 46.41240 | 39346 ft | 406 kts | 266° |
| 2026-05-07 20:48 | 28.74821 | 46.38027 | 39532 ft | 407 kts | 266° |
| 2026-05-07 20:48 | 28.75067 | 46.34806 | 39686 ft | 408 kts | 266° |
| 2026-05-07 20:48 | 28.75311 | 46.31571 | 39783 ft | 411 kts | 266° |
| 2026-05-07 20:48 | 28.75549 | 46.28317 | 39895 ft | 413 kts | 266° |
| 2026-05-07 20:49 | 28.75785 | 46.25040 | 39995 ft | 416 kts | 266° |
| 2026-05-07 20:49 | 28.76267 | 46.18425 | 40059 ft | 422 kts | 266° |
| 2026-05-07 20:50 | 28.76751 | 46.11769 | 40069 ft | 420 kts | 266° |
| 2026-05-07 20:50 | 28.77224 | 46.05150 | 40066 ft | 419 kts | 266° |
| 2026-05-07 20:51 | 28.77696 | 45.98543 | 40074 ft | 418 kts | 266° |
| 2026-05-07 20:51 | 28.78159 | 45.91983 | 40075 ft | 418 kts | 266° |
| 2026-05-07 20:52 | 28.78623 | 45.85385 | 40072 ft | 417 kts | 265° |
| 2026-05-07 20:52 | 28.79083 | 45.78790 | 40074 ft | 416 kts | 265° |
| 2026-05-07 20:53 | 28.79539 | 45.72214 | 40079 ft | 416 kts | 265° |
| 2026-05-07 20:53 | 28.79993 | 45.65638 | 40079 ft | 416 kts | 265° |
| 2026-05-07 20:54 | 28.80449 | 45.59063 | 40079 ft | 415 kts | 265° |
| 2026-05-07 20:54 | 28.80898 | 45.52497 | 40075 ft | 415 kts | 265° |
| 2026-05-07 20:55 | 28.81346 | 45.45937 | 40080 ft | 414 kts | 265° |
| 2026-05-07 20:55 | 28.81788 | 45.39389 | 40079 ft | 414 kts | 265° |
| 2026-05-07 20:56 | 28.82226 | 45.32870 | 40078 ft | 414 kts | 265° |
| 2026-05-07 20:56 | 28.82663 | 45.26311 | 40079 ft | 414 kts | 265° |
| 2026-05-07 20:57 | 28.83095 | 45.19773 | 40079 ft | 413 kts | 265° |
| 2026-05-07 20:57 | 28.83524 | 45.13242 | 40084 ft | 413 kts | 265° |
| 2026-05-07 20:58 | 28.83950 | 45.06713 | 40083 ft | 412 kts | 265° |
| 2026-05-07 20:58 | 28.84300 | 45.01306 | 40082 ft | 411 kts | 265° |
| 2026-05-07 20:59 | 28.84718 | 44.94792 | 40087 ft | 411 kts | 265° |
| 2026-05-07 20:59 | 28.85133 | 44.88282 | 40083 ft | 412 kts | 265° |
| 2026-05-07 21:00 | 28.85559 | 44.81765 | 40085 ft | 414 kts | 267° |
| 2026-05-07 21:00 | 28.86836 | 44.75244 | 40084 ft | 431 kts | 278° |
| 2026-05-07 21:01 | 28.89480 | 44.68958 | 40089 ft | 450 kts | 291° |
| 2026-05-07 21:01 | 28.93104 | 44.63041 | 40087 ft | 455 kts | 292° |
| 2026-05-07 21:02 | 28.96747 | 44.57117 | 40089 ft | 456 kts | 292° |
| 2026-05-07 21:02 | 29.00382 | 44.51221 | 40087 ft | 456 kts | 292° |
| 2026-05-07 21:03 | 29.04029 | 44.45286 | 40094 ft | 456 kts | 292° |
| 2026-05-07 21:03 | 29.07677 | 44.39343 | 40091 ft | 457 kts | 292° |
| 2026-05-07 21:04 | 29.11330 | 44.33384 | 40092 ft | 458 kts | 292° |
| 2026-05-07 21:04 | 29.14989 | 44.27408 | 40097 ft | 459 kts | 292° |
| 2026-05-07 21:05 | 29.18642 | 44.21432 | 40095 ft | 457 kts | 292° |
| 2026-05-07 21:05 | 29.22284 | 44.15466 | 40099 ft | 456 kts | 292° |
| 2026-05-07 21:06 | 29.25897 | 44.09537 | 40095 ft | 456 kts | 292° |
| 2026-05-07 21:06 | 29.29527 | 44.03572 | 40099 ft | 457 kts | 292° |
| 2026-05-07 21:07 | 29.33159 | 43.97597 | 40100 ft | 457 kts | 292° |
| 2026-05-07 21:07 | 29.36791 | 43.91611 | 40100 ft | 457 kts | 292° |
| 2026-05-07 21:08 | 29.40417 | 43.85629 | 40102 ft | 457 kts | 292° |
| 2026-05-07 21:08 | 29.44045 | 43.79634 | 40099 ft | 457 kts | 292° |
| 2026-05-07 21:09 | 29.47664 | 43.73644 | 40102 ft | 457 kts | 292° |
| 2026-05-07 21:09 | 29.51281 | 43.67649 | 40097 ft | 457 kts | 292° |
| 2026-05-07 21:10 | 29.54908 | 43.61629 | 40106 ft | 458 kts | 292° |
| 2026-05-07 21:10 | 29.58516 | 43.55632 | 40104 ft | 458 kts | 292° |
| 2026-05-07 21:11 | 29.62132 | 43.49601 | 40103 ft | 458 kts | 291° |
| 2026-05-07 21:11 | 29.67312 | 43.40387 | 40108 ft | 458 kts | 291° |
| 2026-05-07 21:12 | 29.70769 | 43.34223 | 40108 ft | 459 kts | 291° |
| 2026-05-07 21:12 | 29.74212 | 43.28079 | 40107 ft | 460 kts | 291° |
| 2026-05-07 21:13 | 29.77677 | 43.21886 | 40106 ft | 460 kts | 291° |
| 2026-05-07 21:13 | 29.81140 | 43.15685 | 40110 ft | 461 kts | 291° |
| 2026-05-07 21:14 | 29.84607 | 43.09469 | 40113 ft | 461 kts | 291° |
| 2026-05-07 21:14 | 29.88074 | 43.03242 | 40111 ft | 462 kts | 291° |
| 2026-05-07 21:15 | 29.91545 | 42.96998 | 40112 ft | 463 kts | 291° |
| 2026-05-07 21:15 | 29.95024 | 42.90731 | 40116 ft | 465 kts | 291° |
| 2026-05-07 21:16 | 29.98513 | 42.84437 | 40114 ft | 466 kts | 291° |
| 2026-05-07 21:16 | 30.02010 | 42.78116 | 40113 ft | 468 kts | 291° |
| 2026-05-07 21:17 | 30.05494 | 42.71813 | 40117 ft | 469 kts | 291° |
| 2026-05-07 21:17 | 30.09002 | 42.65455 | 40115 ft | 469 kts | 291° |
| 2026-05-07 21:18 | 30.12511 | 42.59082 | 40125 ft | 469 kts | 291° |
| 2026-05-07 21:18 | 30.16011 | 42.52717 | 40122 ft | 470 kts | 291° |
| 2026-05-07 21:19 | 30.19514 | 42.46338 | 40124 ft | 470 kts | 291° |
| 2026-05-07 21:19 | 30.23012 | 42.39958 | 40114 ft | 470 kts | 291° |
| 2026-05-07 21:20 | 30.26512 | 42.33562 | 40126 ft | 470 kts | 291° |
| 2026-05-07 21:20 | 30.30007 | 42.27167 | 40127 ft | 470 kts | 291° |
| 2026-05-07 21:21 | 30.33477 | 42.20807 | 40130 ft | 470 kts | 291° |
| 2026-05-07 21:21 | 30.36960 | 42.14412 | 40134 ft | 468 kts | 291° |
| 2026-05-07 21:22 | 30.40432 | 42.08027 | 40129 ft | 467 kts | 291° |
| 2026-05-07 21:22 | 30.43890 | 42.01659 | 40134 ft | 465 kts | 291° |
| 2026-05-07 21:23 | 30.47334 | 41.95301 | 40136 ft | 467 kts | 291° |
| 2026-05-07 21:23 | 30.50770 | 41.88954 | 40134 ft | 468 kts | 291° |
| 2026-05-07 21:24 | 30.54223 | 41.82563 | 40140 ft | 468 kts | 291° |
| 2026-05-07 21:24 | 30.57676 | 41.76163 | 40140 ft | 468 kts | 291° |
| 2026-05-07 21:25 | 30.61124 | 41.69762 | 40137 ft | 467 kts | 291° |
| 2026-05-07 21:25 | 30.64572 | 41.63350 | 40132 ft | 466 kts | 291° |
| 2026-05-07 21:26 | 30.68003 | 41.56957 | 40149 ft | 466 kts | 292° |
| 2026-05-07 21:26 | 30.71436 | 41.50551 | 40147 ft | 467 kts | 292° |
| 2026-05-07 21:27 | 30.74849 | 41.44172 | 40152 ft | 468 kts | 292° |
| 2026-05-07 21:27 | 30.78281 | 41.37750 | 40159 ft | 468 kts | 292° |
| 2026-05-07 21:28 | 30.81711 | 41.31318 | 40158 ft | 468 kts | 292° |
| 2026-05-07 21:28 | 30.85144 | 41.24870 | 40160 ft | 469 kts | 292° |
| 2026-05-07 21:29 | 30.88579 | 41.18409 | 40162 ft | 469 kts | 292° |
| 2026-05-07 21:29 | 30.91629 | 41.11782 | 40094 ft | 457 kts | 283° |
| 2026-05-07 21:30 | 30.93958 | 41.04877 | 40088 ft | 458 kts | 283° |
| 2026-05-07 21:30 | 30.96288 | 40.97970 | 40085 ft | 458 kts | 283° |
| 2026-05-07 21:31 | 30.98601 | 40.91089 | 40084 ft | 459 kts | 283° |
| 2026-05-07 21:31 | 31.00927 | 40.84161 | 40090 ft | 460 kts | 284° |
| 2026-05-07 21:32 | 31.03252 | 40.77219 | 40093 ft | 460 kts | 284° |
| 2026-05-07 21:32 | 31.05580 | 40.70253 | 40089 ft | 460 kts | 284° |
| 2026-05-07 21:33 | 31.07899 | 40.63301 | 40092 ft | 460 kts | 284° |
| 2026-05-07 21:33 | 31.10218 | 40.56334 | 40101 ft | 461 kts | 284° |
| 2026-05-07 21:34 | 31.12536 | 40.49354 | 40100 ft | 461 kts | 284° |
| 2026-05-07 21:34 | 31.14855 | 40.42359 | 40099 ft | 462 kts | 284° |
| 2026-05-07 21:35 | 31.17154 | 40.35406 | 40098 ft | 461 kts | 284° |
| 2026-05-07 21:35 | 31.19463 | 40.28410 | 40103 ft | 462 kts | 285° |
| 2026-05-07 21:36 | 31.21769 | 40.21408 | 40101 ft | 462 kts | 285° |
| 2026-05-07 21:36 | 31.24073 | 40.14398 | 40101 ft | 462 kts | 285° |
| 2026-05-07 21:37 | 31.26372 | 40.07385 | 40099 ft | 462 kts | 285° |
| 2026-05-07 21:37 | 31.28669 | 40.00368 | 40096 ft | 461 kts | 285° |
| 2026-05-07 21:38 | 31.30959 | 39.93351 | 40097 ft | 463 kts | 285° |
| 2026-05-07 21:38 | 31.33256 | 39.86305 | 40099 ft | 464 kts | 285° |
| 2026-05-07 21:39 | 31.35535 | 39.79294 | 40094 ft | 464 kts | 285° |
| 2026-05-07 21:39 | 31.37825 | 39.72235 | 40097 ft | 464 kts | 286° |
| 2026-05-07 21:40 | 31.40113 | 39.65167 | 40096 ft | 463 kts | 286° |
| 2026-05-07 21:40 | 31.42390 | 39.58118 | 40097 ft | 462 kts | 286° |
| 2026-05-07 21:41 | 31.44665 | 39.51086 | 40094 ft | 462 kts | 286° |
| 2026-05-07 21:41 | 31.46958 | 39.44068 | 40093 ft | 460 kts | 286° |
| 2026-05-07 21:42 | 31.49225 | 39.37064 | 40093 ft | 460 kts | 286° |
| 2026-05-07 21:42 | 31.51501 | 39.30045 | 40092 ft | 460 kts | 286° |
| 2026-05-07 21:43 | 31.53768 | 39.23026 | 40089 ft | 460 kts | 287° |
| 2026-05-07 21:43 | 31.56028 | 39.16019 | 40095 ft | 459 kts | 287° |
| 2026-05-07 21:44 | 31.58280 | 39.09016 | 40092 ft | 458 kts | 287° |
| 2026-05-07 21:44 | 31.60515 | 39.02054 | 40089 ft | 459 kts | 287° |
| 2026-05-07 21:45 | 31.62760 | 38.95047 | 40088 ft | 459 kts | 287° |
| 2026-05-07 21:45 | 31.65003 | 38.88028 | 40079 ft | 459 kts | 287° |
| 2026-05-07 21:46 | 31.66866 | 38.82188 | 40078 ft | 459 kts | 287° |
| 2026-05-07 21:46 | 31.68620 | 38.75038 | 40101 ft | 453 kts | 274° |
| 2026-05-07 21:47 | 31.68482 | 38.67728 | 40098 ft | 448 kts | 257° |
| 2026-05-07 21:47 | 31.67148 | 38.60578 | 40082 ft | 448 kts | 256° |
| 2026-05-07 21:48 | 31.65780 | 38.53423 | 40076 ft | 449 kts | 256° |
| 2026-05-07 21:48 | 31.64410 | 38.46265 | 40071 ft | 450 kts | 256° |
| 2026-05-07 21:49 | 31.63039 | 38.39123 | 40063 ft | 450 kts | 256° |
| 2026-05-07 21:49 | 31.61665 | 38.31991 | 39683 ft | 445 kts | 256° |
| 2026-05-07 21:50 | 31.60979 | 38.28439 | 39124 ft | 447 kts | 256° |
| 2026-05-07 21:50 | 31.60291 | 38.24883 | 38567 ft | 447 kts | 256° |
| 2026-05-07 21:50 | 31.59602 | 38.21323 | 37848 ft | 449 kts | 256° |
| 2026-05-07 21:50 | 31.58907 | 38.17741 | 37066 ft | 452 kts | 256° |
| 2026-05-07 21:51 | 31.58207 | 38.14139 | 36290 ft | 455 kts | 256° |
| 2026-05-07 21:51 | 31.57500 | 38.10510 | 35516 ft | 458 kts | 256° |
| 2026-05-07 21:51 | 31.56788 | 38.06858 | 34753 ft | 461 kts | 256° |
| 2026-05-07 21:51 | 31.56070 | 38.03180 | 33980 ft | 463 kts | 256° |
| 2026-05-07 21:52 | 31.55385 | 37.99678 | 33130 ft | 466 kts | 256° |
| 2026-05-07 21:52 | 31.54659 | 37.95970 | 32449 ft | 464 kts | 256° |
| 2026-05-07 21:52 | 31.53941 | 37.92307 | 31967 ft | 458 kts | 256° |
| 2026-05-07 21:52 | 31.53238 | 37.88732 | 31416 ft | 455 kts | 257° |
| 2026-05-07 21:53 | 31.52529 | 37.85131 | 30882 ft | 451 kts | 257° |
| 2026-05-07 21:53 | 31.51824 | 37.81557 | 30349 ft | 448 kts | 257° |
| 2026-05-07 21:53 | 31.51125 | 37.78015 | 29792 ft | 444 kts | 257° |
| 2026-05-07 21:53 | 31.50428 | 37.74491 | 29209 ft | 440 kts | 257° |
| 2026-05-07 21:54 | 31.49763 | 37.71008 | 28642 ft | 436 kts | 261° |
| 2026-05-07 21:54 | 31.49528 | 37.67482 | 28078 ft | 431 kts | 270° |
| 2026-05-07 21:54 | 31.49520 | 37.63967 | 27506 ft | 428 kts | 270° |
| 2026-05-07 21:54 | 31.49517 | 37.60498 | 26979 ft | 424 kts | 270° |
| 2026-05-07 21:55 | 31.49516 | 37.57055 | 26448 ft | 421 kts | 270° |
| 2026-05-07 21:55 | 31.49510 | 37.53646 | 25922 ft | 417 kts | 270° |
| 2026-05-07 21:55 | 31.49501 | 37.50261 | 25403 ft | 414 kts | 270° |
| 2026-05-07 21:55 | 31.49493 | 37.46903 | 24894 ft | 410 kts | 270° |
| 2026-05-07 21:56 | 31.49486 | 37.43571 | 24395 ft | 407 kts | 270° |
| 2026-05-07 21:56 | 31.49477 | 37.40269 | 23879 ft | 404 kts | 270° |
| 2026-05-07 21:56 | 31.49467 | 37.36991 | 23354 ft | 401 kts | 270° |
| 2026-05-07 21:56 | 31.49456 | 37.33745 | 22781 ft | 397 kts | 270° |
| 2026-05-07 21:57 | 31.49445 | 37.30556 | 22222 ft | 394 kts | 270° |
| 2026-05-07 21:57 | 31.49433 | 37.27367 | 21661 ft | 390 kts | 270° |
| 2026-05-07 21:57 | 31.49420 | 37.24189 | 21101 ft | 387 kts | 270° |
| 2026-05-07 21:57 | 31.49407 | 37.21039 | 20554 ft | 384 kts | 270° |
| 2026-05-07 21:58 | 31.49393 | 37.17921 | 20002 ft | 381 kts | 270° |
| 2026-05-07 21:58 | 31.49378 | 37.14824 | 19468 ft | 379 kts | 270° |
| 2026-05-07 21:58 | 31.49363 | 37.11750 | 18938 ft | 376 kts | 270° |
| 2026-05-07 21:58 | 31.49347 | 37.08733 | 18420 ft | 373 kts | 270° |
| 2026-05-07 21:59 | 31.49338 | 37.07095 | 18108 ft | 372 kts | 270° |
| 2026-05-07 21:59 | 31.49321 | 37.04087 | 17453 ft | 362 kts | 270° |
| 2026-05-07 21:59 | 31.49492 | 37.01178 | 15745 ft | 360 kts | 281° |
| 2026-05-07 21:59 | 31.50197 | 36.98382 | 14314 ft | 354 kts | 287° |
| 2026-05-07 22:00 | 31.50976 | 36.95663 | 12813 ft | 349 kts | 288° |
| 2026-05-07 22:00 | 31.51765 | 36.92981 | 11311 ft | 345 kts | 288° |
| 2026-05-07 22:00 | 31.52530 | 36.90364 | 10630 ft | 327 kts | 287° |
| 2026-05-07 22:00 | 31.53232 | 36.87940 | 10196 ft | 300 kts | 287° |
| 2026-05-07 22:01 | 31.53872 | 36.85725 | 9792 ft | 277 kts | 287° |
| 2026-05-07 22:01 | 31.54479 | 36.83622 | 8879 ft | 275 kts | 287° |
| 2026-05-07 22:01 | 31.55239 | 36.81562 | 7974 ft | 276 kts | 297° |
| 2026-05-07 22:01 | 31.56306 | 36.79703 | 7144 ft | 275 kts | 308° |
| 2026-05-07 22:02 | 31.57650 | 36.78101 | 6408 ft | 275 kts | 320° |
| 2026-05-07 22:02 | 31.59202 | 36.76834 | 5820 ft | 269 kts | 332° |
| 2026-05-07 22:02 | 31.60859 | 36.75955 | 5117 ft | 258 kts | 343° |
| 2026-05-07 22:02 | 31.62586 | 36.75486 | 4531 ft | 252 kts | 355° |
| 2026-05-07 22:03 | 31.64265 | 36.75464 | 4555 ft | 232 kts | 6° |
| 2026-05-07 22:03 | 31.65808 | 36.75764 | 4560 ft | 217 kts | 8° |
| 2026-05-07 22:03 | 31.67251 | 36.75780 | 4574 ft | 206 kts | 355° |
| 2026-05-07 22:03 | 31.68617 | 36.75403 | 4533 ft | 200 kts | 342° |
| 2026-05-07 22:04 | 31.69865 | 36.74669 | 4317 ft | 202 kts | 332° |
| 2026-05-07 22:04 | 31.70994 | 36.73697 | 4129 ft | 202 kts | 320° |
| 2026-05-07 22:04 | 31.71900 | 36.72422 | 3967 ft | 202 kts | 306° |
| 2026-05-07 22:04 | 31.72502 | 36.70933 | 3961 ft | 205 kts | 291° |
| 2026-05-07 22:05 | 31.72788 | 36.69288 | 3963 ft | 207 kts | 279° |
| 2026-05-07 22:05 | 31.72878 | 36.67583 | 3965 ft | 209 kts | 276° |
| 2026-05-07 22:05 | 31.72951 | 36.65859 | 3969 ft | 213 kts | 276° |
| 2026-05-07 22:05 | 31.73017 | 36.64125 | 3971 ft | 211 kts | 275° |
| 2026-05-07 22:06 | 31.73082 | 36.62406 | 3973 ft | 210 kts | 276° |
| 2026-05-07 22:06 | 31.73144 | 36.60751 | 3989 ft | 196 kts | 276° |
| 2026-05-07 22:06 | 31.73201 | 36.59196 | 3869 ft | 192 kts | 276° |
| 2026-05-07 22:06 | 31.73256 | 36.57534 | 3706 ft | 214 kts | 275° |
| 2026-05-07 22:07 | 31.73332 | 36.55711 | 3924 ft | 227 kts | 276° |
| 2026-05-07 22:07 | 31.73417 | 36.53825 | 3995 ft | 233 kts | 276° |
| 2026-05-07 22:07 | 31.73500 | 36.51957 | 3999 ft | 225 kts | 276° |
| 2026-05-07 22:07 | 31.73579 | 36.50123 | 3993 ft | 232 kts | 275° |
| 2026-05-07 22:08 | 31.73669 | 36.48221 | 3999 ft | 231 kts | 276° |
| 2026-05-07 22:08 | 31.73764 | 36.46322 | 4000 ft | 235 kts | 276° |
| 2026-05-07 22:08 | 31.73861 | 36.44395 | 4000 ft | 236 kts | 275° |
| 2026-05-07 22:08 | 31.73966 | 36.42475 | 4002 ft | 235 kts | 276° |
| 2026-05-07 22:09 | 31.74071 | 36.40560 | 4009 ft | 235 kts | 276° |
| 2026-05-07 22:09 | 31.74205 | 36.38684 | 4005 ft | 233 kts | 278° |
| 2026-05-07 22:09 | 31.74442 | 36.36787 | 4009 ft | 234 kts | 281° |
| 2026-05-07 22:09 | 31.74693 | 36.34908 | 4011 ft | 234 kts | 281° |
| 2026-05-07 22:10 | 31.74946 | 36.33026 | 4015 ft | 234 kts | 281° |
| 2026-05-07 22:10 | 31.75199 | 36.31141 | 4002 ft | 232 kts | 281° |
| 2026-05-07 22:10 | 31.75461 | 36.29192 | 4000 ft | 251 kts | 281° |
| 2026-05-07 22:10 | 31.75739 | 36.27129 | 4001 ft | 267 kts | 281° |
| 2026-05-07 22:11 | 31.76036 | 36.24956 | 3997 ft | 270 kts | 281° |
| 2026-05-07 22:11 | 31.76228 | 36.22754 | 3996 ft | 274 kts | 273° |
| 2026-05-07 22:11 | 31.76088 | 36.20541 | 3997 ft | 266 kts | 262° |
| 2026-05-07 22:11 | 31.75765 | 36.18424 | 4000 ft | 262 kts | 261° |
| 2026-05-07 22:12 | 31.75456 | 36.16329 | 3998 ft | 260 kts | 261° |
| 2026-05-07 22:12 | 31.75156 | 36.14239 | 3997 ft | 260 kts | 262° |
| 2026-05-07 22:12 | 31.74861 | 36.12147 | 3997 ft | 259 kts | 261° |
| 2026-05-07 22:12 | 31.74568 | 36.10110 | 3997 ft | 244 kts | 262° |
| 2026-05-07 22:13 | 31.74287 | 36.08166 | 3711 ft | 240 kts | 262° |
| 2026-05-07 22:13 | 31.74016 | 36.06292 | 3409 ft | 221 kts | 262° |
| 2026-05-07 22:13 | 31.73779 | 36.04620 | 3098 ft | 197 kts | 262° |
| 2026-05-07 22:13 | 31.73565 | 36.03117 | 2838 ft | 175 kts | 261° |
| 2026-05-07 22:14 | 31.73375 | 36.01796 | 2613 ft | 154 kts | 261° |
| 2026-05-07 22:14 | 31.73208 | 36.00630 | 2423 ft | 138 kts | 261° |
| 2026-05-07 22:14 | 31.73091 | 35.99841 | 2422 ft | 50 kts | 260° |
| 2026-05-07 22:14 | 31.73035 | 35.99451 | 2421 ft | 56 kts | 260° |
| 2026-05-07 22:15 | 31.72954 | 35.98888 | 2423 ft | 88 kts | 260° |
| 2026-05-07 22:15 | 31.72868 | 35.98297 | 2422 ft | 45 kts | 254° |
| 2026-05-07 22:15 | 31.72755 | 35.98198 | 2421 ft | 15 kts | 163° |
| 2026-05-07 22:15 | 31.72606 | 35.98255 | 2420 ft | 20 kts | 131° |
| 2026-05-07 22:16 | 31.72592 | 35.98345 | 2422 ft | 0 kts | 77° |
| 2026-05-07 22:16 | 31.72597 | 35.98368 | 2422 ft | 6 kts | 76° |
| 2026-05-07 22:16 | 31.72613 | 35.98438 | 2420 ft | 13 kts | 75° |
| 2026-05-07 22:16 | 31.72624 | 35.98543 | 2422 ft | 13 kts | 86° |
| 2026-05-07 22:17 | 31.72635 | 35.98650 | 2424 ft | 13 kts | 80° |
| 2026-05-07 22:17 | 31.72654 | 35.98760 | 2421 ft | 14 kts | 77° |
| 2026-05-07 22:17 | 31.72663 | 35.98871 | 2420 ft | 12 kts | 109° |
| 2026-05-07 22:17 | 31.72613 | 35.98916 | 2422 ft | 10 kts | 179° |
| 2026-05-07 22:18 | 31.72544 | 35.98868 | 2422 ft | 12 kts | 225° |
| 2026-05-07 22:18 | 31.72448 | 35.98839 | 2420 ft | 5 kts | 158° |
| 2026-05-07 22:18 | 31.72431 | 35.98847 | 2422 ft | 0 kts | 158° |